createdAt,value
2022-11-29T00:01:11.407Z,9.18
2022-11-29T00:03:38.095Z,8.70
2022-11-29T00:06:07.598Z,9.35
2022-11-29T00:08:35.509Z,8.40
2022-11-29T00:11:07.323Z,8.57
2022-11-29T00:13:34.809Z,8.07
2022-11-29T00:16:03.534Z,7.43
2022-11-29T00:18:30.652Z,6.65
2022-11-29T00:20:57.776Z,7.15
2022-11-29T00:23:24.616Z,6.40
2022-11-29T00:25:51.781Z,7.07
2022-11-29T00:28:18.690Z,7.47
2022-11-29T00:30:45.617Z,6.53
2022-11-29T00:33:12.584Z,6.55
2022-11-29T00:35:39.510Z,6.60
2022-11-29T00:38:06.323Z,6.25
2022-11-29T00:40:33.100Z,6.65
2022-11-29T00:43:00.126Z,6.20
2022-11-29T00:45:26.979Z,6.00
2022-11-29T00:47:53.709Z,6.43
2022-11-29T00:50:20.585Z,5.10
2022-11-29T00:52:47.506Z,6.75
2022-11-29T00:55:14.695Z,5.25
2022-11-29T00:57:41.667Z,5.70
2022-11-29T01:00:09.411Z,5.28
2022-11-29T01:02:36.295Z,5.57
2022-11-29T01:05:03.852Z,5.70
2022-11-29T01:07:31.446Z,4.57
2022-11-29T01:09:58.314Z,5.00
2022-11-29T01:12:25.223Z,5.32
2022-11-29T01:14:52.168Z,4.90
2022-11-29T01:17:19.050Z,4.75
2022-11-29T01:19:50.572Z,5.30
2022-11-29T01:22:18.696Z,5.55
2022-11-29T01:24:45.855Z,5.80
2022-11-29T01:27:12.898Z,5.68
2022-11-29T01:29:39.730Z,6.47
2022-11-29T01:32:06.685Z,5.82
2022-11-29T01:34:33.717Z,6.18
2022-11-29T01:37:00.760Z,5.78
2022-11-29T01:39:27.637Z,5.95
2022-11-29T01:41:55.224Z,5.47
2022-11-29T01:44:22.116Z,6.18
2022-11-29T01:46:49.395Z,5.63
2022-11-29T01:49:19.613Z,5.65
2022-11-29T01:51:51.685Z,6.63
2022-11-29T01:54:20.154Z,6.90
2022-11-29T01:56:49.657Z,6.55
2022-11-29T01:59:20.844Z,7.68
2022-11-29T02:01:48.073Z,7.43
2022-11-29T02:04:15.577Z,7.30
2022-11-29T02:06:43.474Z,7.35
2022-11-29T02:09:21.534Z,7.25
2022-11-29T02:12:24.835Z,7.63
2022-11-29T02:14:57.559Z,7.85
2022-11-29T02:17:40.881Z,8.07
2022-11-29T02:20:44.988Z,8.23
2022-11-29T02:23:23.812Z,8.10
2022-11-29T02:26:10.501Z,8.70
2022-11-29T02:28:40.500Z,8.85
2022-11-29T02:31:35.130Z,8.57
2022-11-29T02:34:07.917Z,9.30
2022-11-29T02:36:34.722Z,8.95
2022-11-29T02:39:26.285Z,8.77
2022-11-29T02:42:22.500Z,8.65
2022-11-29T02:45:15.133Z,8.18
2022-11-29T02:47:51.054Z,8.77
2022-11-29T02:50:50.718Z,8.32
2022-11-29T02:53:23.166Z,8.30
2022-11-29T02:56:15.729Z,9.02
2022-11-29T02:58:42.557Z,8.60
2022-11-29T03:01:28.294Z,9.15
2022-11-29T03:04:20.735Z,9.25
2022-11-29T03:07:17.994Z,9.25
2022-11-29T03:09:50.072Z,9.13
2022-11-29T03:12:19.889Z,9.10
2022-11-29T03:15:17.091Z,8.65
2022-11-29T03:18:07.566Z,9.63
2022-11-29T03:20:53.099Z,9.48
2022-11-29T03:23:37.053Z,9.90
2022-11-29T03:26:24.634Z,9.68
2022-11-29T03:28:56.727Z,8.68
2022-11-29T03:31:35.556Z,8.68
2022-11-29T03:34:38.551Z,8.93
2022-11-29T03:37:17.541Z,9.50
2022-11-29T03:39:44.389Z,10.07
2022-11-29T03:42:20.398Z,9.60
2022-11-29T03:44:56.728Z,9.70
2022-11-29T03:47:30.301Z,9.57
2022-11-29T03:50:08.713Z,9.05
2022-11-29T03:53:01.924Z,10.82
2022-11-29T03:55:49.940Z,9.63
2022-11-29T03:58:38.704Z,10.40
2022-11-29T04:01:44.203Z,10.00
2022-11-29T04:04:48.652Z,9.30
2022-11-29T04:07:34.286Z,9.75
2022-11-29T04:10:07.029Z,10.27
2022-11-29T04:12:51.885Z,11.20
2022-11-29T04:15:56.097Z,11.07
2022-11-29T04:18:41.832Z,9.52
2022-11-29T04:21:17.521Z,9.77
2022-11-29T04:24:03.328Z,10.10
2022-11-29T04:26:34.981Z,9.40
2022-11-29T04:29:20.862Z,8.90
2022-11-29T04:32:20.537Z,9.77
2022-11-29T04:34:56.203Z,9.15
2022-11-29T04:37:31.969Z,9.73
2022-11-29T04:40:24.565Z,9.35
2022-11-29T04:43:24.959Z,8.75
2022-11-29T04:46:10.828Z,9.77
2022-11-29T04:48:44.124Z,9.43
2022-11-29T04:51:42.982Z,9.10
2022-11-29T04:54:23.353Z,9.75
2022-11-29T04:57:04.551Z,8.85
2022-11-29T04:59:51.968Z,9.85
2022-11-29T05:02:41.351Z,9.27
2022-11-29T05:05:41.868Z,10.23
2022-11-29T05:08:25.398Z,9.27
2022-11-29T05:11:05.920Z,9.82
2022-11-29T05:13:57.506Z,9.68
2022-11-29T05:16:51.501Z,9.43
2022-11-29T05:19:29.913Z,9.48
2022-11-29T05:22:17.909Z,9.98
2022-11-29T05:25:01.299Z,9.52
2022-11-29T05:27:59.286Z,9.20
2022-11-29T05:30:40.538Z,10.02
2022-11-29T05:33:29.189Z,9.35
2022-11-29T05:36:04.053Z,9.65
2022-11-29T05:41:23.955Z,9.10
2022-11-29T05:44:31.945Z,9.65
2022-11-29T05:47:10.329Z,8.80
2022-11-29T05:49:58.704Z,8.90
2022-11-29T05:52:30.918Z,9.85
2022-11-29T05:55:25.475Z,9.00
2022-11-29T05:58:11.836Z,9.35
2022-11-29T06:00:57.322Z,9.90
2022-11-29T06:03:24.077Z,9.35
2022-11-29T06:05:57.657Z,9.93
2022-11-29T06:08:47.830Z,8.55
2022-11-29T06:11:25.753Z,9.48
2022-11-29T06:14:13.855Z,8.77
2022-11-29T06:16:52.927Z,8.60
2022-11-29T06:19:44.739Z,8.75
2022-11-29T06:22:11.734Z,8.57
2022-11-29T06:25:03.637Z,7.80
2022-11-29T06:27:30.297Z,7.50
2022-11-29T06:30:07.412Z,8.68
2022-11-29T06:32:42.425Z,8.60
2022-11-29T06:37:55.791Z,8.75
2022-11-29T06:40:23.076Z,9.13
2022-11-29T06:42:50.007Z,9.27
2022-11-29T06:45:17.448Z,8.25
2022-11-29T06:47:59.053Z,8.55
2022-11-29T06:50:33.340Z,8.80
2022-11-29T06:53:30.455Z,9.32
2022-11-29T06:56:26.545Z,9.13
2022-11-29T06:59:30.995Z,7.65
2022-11-29T07:02:12.696Z,8.65
2022-11-29T07:05:15.079Z,9.13
2022-11-29T07:07:43.190Z,9.32
2022-11-29T07:10:17.001Z,8.77
2022-11-29T07:12:45.756Z,9.07
2022-11-29T07:15:21.767Z,8.95
2022-11-29T07:18:11.817Z,8.88
2022-11-29T07:21:13.635Z,8.77
2022-11-29T07:24:02.749Z,10.07
2022-11-29T07:27:07.977Z,8.93
2022-11-29T07:30:00.880Z,7.03
2022-11-29T07:32:47.268Z,9.35
2022-11-29T07:35:49.655Z,8.82
2022-11-29T07:38:44.072Z,9.77
2022-11-29T07:41:28.094Z,9.32
2022-11-29T07:44:18.997Z,10.23
2022-11-29T07:46:45.915Z,9.05
2022-11-29T07:49:12.758Z,9.40
2022-11-29T07:51:39.554Z,9.20
2022-11-29T07:54:06.771Z,9.70
2022-11-29T07:56:33.520Z,9.00
2022-11-29T07:59:00.331Z,9.05
2022-11-29T08:01:27.352Z,8.90
2022-11-29T08:03:54.506Z,9.65
2022-11-29T08:06:25.888Z,9.82
2022-11-29T08:08:52.836Z,8.75
2022-11-29T08:11:19.695Z,9.05
2022-11-29T08:13:46.675Z,9.75
2022-11-29T08:16:19.771Z,8.73
2022-11-29T08:18:46.761Z,8.57
2022-11-29T08:21:18.264Z,8.20
2022-11-29T08:23:49.768Z,8.82
2022-11-29T08:26:18.869Z,8.90
2022-11-29T08:28:45.846Z,9.50
2022-11-29T08:31:13.551Z,8.38
2022-11-29T08:33:43.046Z,8.80
2022-11-29T08:36:15.769Z,7.82
2022-11-29T08:38:42.838Z,7.90
2022-11-29T08:41:12.237Z,8.82
2022-11-29T08:43:39.437Z,8.65
2022-11-29T08:46:06.632Z,7.35
2022-11-29T08:48:34.128Z,8.77
2022-11-29T08:51:00.729Z,7.47
2022-11-29T08:53:43.545Z,7.90
2022-11-29T08:57:10.084Z,8.32
2022-11-29T08:59:07.726Z,7.70
2022-11-29T09:01:34.754Z,8.13
2022-11-29T09:04:05.339Z,7.60
2022-11-29T09:06:34.655Z,7.72
2022-11-29T09:09:01.738Z,8.50
2022-11-29T09:11:30.248Z,8.63
2022-11-29T09:14:00.335Z,7.55
2022-11-29T09:16:30.676Z,7.97
2022-11-29T09:18:57.827Z,7.05
2022-11-29T09:21:26.661Z,7.72
2022-11-29T09:23:59.012Z,7.70
2022-11-29T09:26:29.361Z,7.63
2022-11-29T09:28:58.373Z,7.63
2022-11-29T09:31:25.296Z,8.32
2022-11-29T09:33:52.128Z,8.15
2022-11-29T09:36:23.758Z,7.45
2022-11-29T09:38:53.675Z,8.40
2022-11-29T09:41:26.252Z,7.25
2022-11-29T09:44:01.871Z,7.70
2022-11-29T09:46:37.601Z,8.00
2022-11-29T09:49:13.522Z,8.02
2022-11-29T09:52:12.729Z,8.18
2022-11-29T09:55:05.471Z,8.07
2022-11-29T09:57:32.938Z,7.70
2022-11-29T10:00:05.222Z,7.85
2022-11-29T10:02:38.852Z,7.15
2022-11-29T10:05:22.141Z,7.18
2022-11-29T10:07:56.665Z,7.35
2022-11-29T10:10:31.589Z,7.20
2022-11-29T10:16:22.560Z,6.72
2022-11-29T10:18:57.568Z,7.60
2022-11-29T10:23:59.913Z,7.35
2022-11-29T10:26:32.000Z,7.85
2022-11-29T10:31:42.979Z,6.35
2022-11-29T10:34:22.065Z,7.65
2022-11-29T10:37:01.489Z,6.40
2022-11-29T10:39:39.800Z,6.68
2022-11-29T10:42:40.307Z,7.28
2022-11-29T10:45:27.610Z,6.65
2022-11-29T10:48:12.557Z,5.85
2022-11-29T10:50:44.178Z,6.45
2022-11-29T10:53:14.129Z,6.35
2022-11-29T10:55:55.260Z,6.78
2022-11-29T10:58:28.487Z,7.05
2022-11-29T11:01:00.390Z,6.15
2022-11-29T11:03:52.787Z,5.78
2022-11-29T11:06:26.683Z,6.72
2022-11-29T11:09:12.727Z,6.80
2022-11-29T11:11:40.197Z,5.28
2022-11-29T11:14:25.733Z,5.40
2022-11-29T11:16:54.204Z,6.65
2022-11-29T11:19:41.603Z,5.63
2022-11-29T11:22:21.867Z,6.13
2022-11-29T11:25:04.796Z,6.40
2022-11-29T11:27:42.077Z,5.78
2022-11-29T11:30:24.039Z,5.88
2022-11-29T11:33:29.799Z,6.30
2022-11-29T11:36:11.044Z,6.80
2022-11-29T11:38:59.951Z,6.30
2022-11-29T11:41:53.756Z,5.63
2022-11-29T11:44:52.585Z,5.97
2022-11-29T11:47:29.145Z,5.88
2022-11-29T11:50:05.039Z,6.03
2022-11-29T11:52:50.560Z,6.85
2022-11-29T11:55:33.028Z,5.95
2022-11-29T11:58:09.939Z,5.55
2022-11-29T12:04:04.853Z,5.90
2022-11-29T12:06:42.346Z,4.82
2022-11-29T12:09:10.051Z,5.82
2022-11-29T12:12:15.475Z,6.03
2022-11-29T12:15:02.498Z,4.60
2022-11-29T12:17:38.448Z,5.22
2022-11-29T12:20:20.651Z,5.28
2022-11-29T12:23:05.713Z,6.00
2022-11-29T12:25:44.900Z,5.72
2022-11-29T12:28:18.709Z,5.90
2022-11-29T12:31:07.411Z,5.53
2022-11-29T12:33:53.090Z,5.70
2022-11-29T12:36:34.954Z,5.75
2022-11-29T12:39:37.704Z,6.05
2022-11-29T12:42:21.322Z,6.05
2022-11-29T12:45:00.233Z,5.40
2022-11-29T12:47:36.724Z,6.07
2022-11-29T12:50:12.238Z,6.47
2022-11-29T12:52:58.742Z,6.05
2022-11-29T12:55:51.257Z,6.00
2022-11-29T12:59:07.620Z,6.03
2022-11-29T13:01:52.684Z,5.50
2022-11-29T13:04:36.483Z,5.88
2022-11-29T13:07:41.935Z,5.35
2022-11-29T13:10:33.808Z,4.55
2022-11-29T13:13:09.300Z,6.45
2022-11-29T13:15:45.369Z,6.00
2022-11-29T13:18:25.681Z,6.07
2022-11-29T13:21:00.177Z,6.05
2022-11-29T13:24:07.282Z,6.13
2022-11-29T13:26:27.666Z,6.45
2022-11-29T13:28:55.513Z,6.13
2022-11-29T13:31:25.079Z,5.82
2022-11-29T13:34:06.271Z,6.20
2022-11-29T13:37:19.162Z,5.93
2022-11-29T13:40:19.650Z,6.40
2022-11-29T13:43:12.358Z,5.72
2022-11-29T13:46:16.956Z,6.07
2022-11-29T13:48:52.237Z,6.25
2022-11-29T13:51:31.897Z,6.32
2022-11-29T13:54:05.298Z,5.95
2022-11-29T13:56:46.655Z,6.13
2022-11-29T13:59:27.793Z,5.45
2022-11-29T14:01:55.485Z,6.18
2022-11-29T14:04:41.669Z,5.53
2022-11-29T14:07:18.908Z,5.38
2022-11-29T14:09:45.802Z,5.18
2022-11-29T14:12:55.035Z,5.88
2022-11-29T14:15:28.509Z,5.40
2022-11-29T14:17:59.661Z,5.85
2022-11-29T14:20:28.187Z,4.90
2022-11-29T14:23:04.303Z,5.30
2022-11-29T14:25:57.168Z,5.80
2022-11-29T14:28:24.037Z,5.00
2022-11-29T14:30:55.635Z,4.78
2022-11-29T14:33:46.865Z,4.80
2022-11-29T14:36:32.264Z,4.82
2022-11-29T14:39:23.375Z,5.43
2022-11-29T14:42:18.766Z,5.43
2022-11-29T14:44:52.118Z,4.90
2022-11-29T14:47:39.186Z,4.38
2022-11-29T14:50:10.584Z,4.78
2022-11-29T14:52:40.112Z,5.22
2022-11-29T14:55:16.262Z,5.00
2022-11-29T14:58:01.281Z,5.68
2022-11-29T15:00:41.665Z,4.60
2022-11-29T15:03:20.157Z,4.97
2022-11-29T15:06:25.463Z,5.53
2022-11-29T15:09:06.309Z,4.70
2022-11-29T15:11:54.534Z,5.88
2022-11-29T15:14:44.796Z,5.65
2022-11-29T15:17:32.568Z,5.28
2022-11-29T15:20:14.972Z,5.35
2022-11-29T15:23:01.682Z,5.20
2022-11-29T15:25:32.134Z,5.97
2022-11-29T15:28:01.644Z,6.05
2022-11-29T15:30:39.331Z,6.03
2022-11-29T15:33:08.945Z,5.65
2022-11-29T15:35:36.897Z,5.50
2022-11-29T15:38:03.848Z,5.35
2022-11-29T15:40:35.769Z,5.30
2022-11-29T15:43:26.487Z,4.85
2022-11-29T15:45:55.808Z,4.85
2022-11-29T15:48:31.067Z,4.47
2022-11-29T15:51:00.682Z,4.55
2022-11-29T15:53:44.151Z,4.25
2022-11-29T15:56:36.040Z,5.05
2022-11-29T15:59:09.621Z,4.80
2022-11-29T16:01:38.924Z,4.85
2022-11-29T16:04:06.229Z,4.57
2022-11-29T16:06:42.270Z,4.20
2022-11-29T16:09:15.077Z,3.60
2022-11-29T16:11:42.415Z,4.47
2022-11-29T16:14:17.944Z,4.60
2022-11-29T16:16:47.956Z,4.63
2022-11-29T16:19:35.071Z,4.40
2022-11-29T16:22:13.744Z,4.85
2022-11-29T16:24:53.049Z,4.53
2022-11-29T16:27:22.841Z,4.95
2022-11-29T16:29:52.072Z,4.32
2022-11-29T16:32:28.014Z,4.00
2022-11-29T16:34:56.952Z,4.32
2022-11-29T16:37:26.662Z,4.10
2022-11-29T16:39:59.540Z,4.72
2022-11-29T16:42:30.870Z,4.28
2022-11-29T16:45:07.041Z,4.20
2022-11-29T16:48:01.688Z,4.45
2022-11-29T16:50:33.012Z,4.47
2022-11-29T16:53:38.221Z,5.32
2022-11-29T16:56:06.075Z,6.23
2022-11-29T16:58:35.480Z,5.15
2022-11-29T17:01:29.340Z,6.03
2022-11-29T17:03:58.546Z,5.90
2022-11-29T17:06:27.511Z,5.85
2022-11-29T17:08:56.852Z,5.22
2022-11-29T17:11:24.427Z,5.72
2022-11-29T17:13:51.369Z,6.15
2022-11-29T17:16:21.661Z,5.38
2022-11-29T17:18:49.036Z,5.28
2022-11-29T17:21:21.244Z,5.68
2022-11-29T17:23:49.023Z,5.03
2022-11-29T17:26:16.348Z,5.95
2022-11-29T17:28:45.760Z,6.22
2022-11-29T17:31:17.609Z,5.07
2022-11-29T17:33:44.637Z,5.28
2022-11-29T17:36:15.377Z,6.32
2022-11-29T17:38:43.613Z,5.38
2022-11-29T17:41:13.356Z,5.85
2022-11-29T17:43:40.736Z,6.03
2022-11-29T17:46:12.286Z,6.10
2022-11-29T17:48:39.669Z,5.85
2022-11-29T17:51:22.870Z,6.10
2022-11-29T17:53:55.232Z,5.85
2022-11-29T17:56:24.802Z,5.90
2022-11-29T17:58:56.288Z,6.03
2022-11-29T18:01:26.116Z,5.22
2022-11-29T18:03:55.643Z,6.82
2022-11-29T18:06:26.149Z,6.45
2022-11-29T18:08:55.737Z,6.60
2022-11-29T18:11:25.403Z,6.50
2022-11-29T18:13:56.688Z,6.43
2022-11-29T18:16:26.601Z,6.10
2022-11-29T18:19:01.426Z,6.47
2022-11-29T18:21:29.199Z,6.05
2022-11-29T18:23:58.451Z,6.18
2022-11-29T18:26:27.049Z,5.18
2022-11-29T18:28:53.808Z,5.40
2022-11-29T18:31:28.053Z,5.45
2022-11-29T18:34:01.091Z,4.68
2022-11-29T18:36:34.162Z,5.22
2022-11-29T18:39:04.917Z,5.80
2022-11-29T18:41:32.036Z,5.57
2022-11-29T18:44:07.891Z,5.47
2022-11-29T18:46:37.426Z,5.63
2022-11-29T18:49:06.796Z,5.38
2022-11-29T18:51:37.917Z,4.80
2022-11-29T18:54:05.849Z,4.88
2022-11-29T18:56:34.669Z,5.45
2022-11-29T18:59:10.483Z,4.88
2022-11-29T19:01:41.400Z,5.30
2022-11-29T19:04:10.746Z,4.85
2022-11-29T19:06:39.912Z,4.93
2022-11-29T19:09:11.385Z,5.22
2022-11-29T19:11:38.883Z,5.22
2022-11-29T19:14:11.794Z,5.43
2022-11-29T19:16:42.020Z,5.45
2022-11-29T19:19:08.873Z,6.05
2022-11-29T19:21:35.917Z,4.53
2022-11-29T19:24:05.607Z,5.80
2022-11-29T19:26:33.104Z,5.68
2022-11-29T19:29:01.883Z,5.38
2022-11-29T19:31:29.697Z,5.85
2022-11-29T19:33:57.726Z,5.18
2022-11-29T19:36:27.405Z,5.40
2022-11-29T19:38:55.375Z,4.80
2022-11-29T19:41:25.561Z,5.95
2022-11-29T19:43:55.839Z,5.38
2022-11-29T19:46:25.916Z,4.93
2022-11-29T19:48:54.976Z,5.40
2022-11-29T19:51:22.369Z,5.25
2022-11-29T19:53:53.336Z,5.30
2022-11-29T19:56:23.744Z,5.95
2022-11-29T19:58:51.365Z,5.38
2022-11-29T20:01:22.521Z,5.70
2022-11-29T20:03:50.360Z,6.35
2022-11-29T20:06:18.301Z,5.70
2022-11-29T20:08:45.574Z,6.40
2022-11-29T20:11:14.268Z,6.35
2022-11-29T20:13:43.831Z,5.95
2022-11-29T20:16:14.250Z,7.38
2022-11-29T20:18:50.090Z,7.20
2022-11-29T20:21:25.051Z,7.28
2022-11-29T20:23:59.137Z,6.65
2022-11-29T20:26:27.766Z,6.30
2022-11-29T20:28:54.708Z,7.07
2022-11-29T20:31:24.162Z,6.78
2022-11-29T20:33:57.527Z,7.05
2022-11-29T20:36:46.206Z,6.72
2022-11-29T20:39:39.544Z,7.05
2022-11-29T20:42:37.017Z,6.85
2022-11-29T20:45:09.844Z,6.63
2022-11-29T20:47:58.697Z,6.70
2022-11-29T20:50:28.509Z,6.43
2022-11-29T20:53:07.359Z,6.50
2022-11-29T20:55:37.993Z,6.82
2022-11-29T20:58:06.328Z,6.60
2022-11-29T21:00:34.809Z,6.45
2022-11-29T21:03:01.936Z,6.72
2022-11-29T21:05:29.001Z,5.72
2022-11-29T21:07:55.775Z,5.53
2022-11-29T21:10:22.798Z,6.15
2022-11-29T21:12:49.902Z,6.22
2022-11-29T21:15:17.165Z,5.50
2022-11-29T21:17:44.657Z,6.75
2022-11-29T21:20:26.432Z,5.88
2022-11-29T21:23:03.532Z,5.45
2022-11-29T21:25:49.027Z,5.35
2022-11-29T21:28:17.092Z,5.68
2022-11-29T21:30:44.490Z,5.75
2022-11-29T21:33:12.098Z,5.20
2022-11-29T21:35:42.417Z,5.20
2022-11-29T21:38:14.682Z,5.15
2022-11-29T21:40:41.511Z,4.60
2022-11-29T21:43:08.156Z,4.30
2022-11-29T21:45:35.226Z,4.20
2022-11-29T21:48:02.152Z,3.90
2022-11-29T21:50:28.958Z,4.07
2022-11-29T21:52:55.949Z,4.10
2022-11-29T21:55:22.901Z,3.70
2022-11-29T21:57:49.703Z,3.70
2022-11-29T22:00:17.111Z,3.65
2022-11-29T22:02:44.065Z,3.67
2022-11-29T22:05:11.062Z,3.42
2022-11-29T22:07:38.107Z,2.88
2022-11-29T22:10:11.634Z,3.22
2022-11-29T22:12:49.317Z,3.78
2022-11-29T22:15:24.215Z,3.50
2022-11-29T22:17:51.964Z,3.50
2022-11-29T22:20:19.122Z,3.28
2022-11-29T22:22:47.715Z,3.10
2022-11-29T22:25:15.539Z,3.40
2022-11-29T22:27:42.316Z,3.30
2022-11-29T22:30:09.475Z,3.40
2022-11-29T22:32:36.485Z,3.42
2022-11-29T22:35:03.644Z,3.50
2022-11-29T22:37:30.505Z,3.50
2022-11-29T22:39:57.785Z,2.80
2022-11-29T22:42:24.628Z,3.50
2022-11-29T22:44:51.522Z,3.28
2022-11-29T22:47:18.497Z,3.35
2022-11-29T22:49:45.422Z,3.33
2022-11-29T22:52:12.277Z,3.45
2022-11-29T22:54:39.135Z,3.67
2022-11-29T22:57:05.930Z,3.33
2022-11-29T22:59:32.758Z,3.25
2022-11-29T23:01:59.708Z,3.70
2022-11-29T23:04:26.457Z,3.00
2022-11-29T23:06:53.290Z,3.33
2022-11-29T23:09:22.644Z,3.40
2022-11-29T23:11:52.132Z,3.60
2022-11-29T23:14:20.030Z,3.15
2022-11-29T23:16:47.277Z,3.67
2022-11-29T23:19:14.240Z,3.45
2022-11-29T23:21:41.501Z,3.72
2022-11-29T23:24:08.577Z,3.58
2022-11-29T23:26:39.814Z,4.15
2022-11-29T23:29:09.855Z,3.75
2022-11-29T23:31:36.811Z,4.47
2022-11-29T23:34:04.213Z,4.97
2022-11-29T23:36:31.661Z,5.03
2022-11-29T23:38:58.609Z,5.15
2022-11-29T23:41:25.545Z,5.35
2022-11-29T23:43:52.434Z,5.97
2022-11-29T23:46:21.930Z,5.22
2022-11-29T23:48:49.669Z,4.38
2022-11-29T23:51:17.636Z,5.15
2022-11-29T23:53:45.284Z,5.50
2022-11-29T23:56:14.785Z,5.65
2022-11-29T23:58:42.590Z,4.90
